Map

Track Data

SID SEASON NUMBER BASIN SUBBASIN NAME ISO_TIME NATURE LAT LON WMO_WIND WMO_PRES WMO_AGENCY TRACK_TYPE DIST2LAND LANDFALL IFLAG USA_AGENCY USA_ATCF_ID USA_LAT USA_LON USA_RECORD USA_STATUS USA_WIND USA_PRES USA_SSHS USA_R34_NE USA_R34_SE USA_R34_SW USA_R34_NW USA_R50_NE USA_R50_SE USA_R50_SW USA_R50_NW USA_R64_NE USA_R64_SE USA_R64_SW USA_R64_NW USA_POCI USA_ROCI USA_RMW USA_EYE TOKYO_LAT TOKYO_LON TOKYO_GRADE TOKYO_WIND TOKYO_PRES TOKYO_R50_DIR TOKYO_R50_LONG TOKYO_R50_SHORT TOKYO_R30_DIR TOKYO_R30_LONG TOKYO_R30_SHORT TOKYO_LAND CMA_LAT CMA_LON CMA_CAT CMA_WIND CMA_PRES HKO_LAT HKO_LON HKO_CAT HKO_WIND HKO_PRES NEWDELHI_LAT NEWDELHI_LON NEWDELHI_GRADE NEWDELHI_WIND NEWDELHI_PRES NEWDELHI_CI NEWDELHI_DP NEWDELHI_POCI REUNION_LAT REUNION_LON REUNION_TYPE REUNION_WIND REUNION_PRES REUNION_TNUM REUNION_CI REUNION_RMW REUNION_R34_NE REUNION_R34_SE REUNION_R34_SW REUNION_R34_NW REUNION_R50_NE REUNION_R50_SE REUNION_R50_SW REUNION_R50_NW REUNION_R64_NE REUNION_R64_SE REUNION_R64_SW REUNION_R64_NW BOM_LAT BOM_LON BOM_TYPE BOM_WIND BOM_PRES BOM_TNUM BOM_CI BOM_RMW BOM_R34_NE BOM_R34_SE BOM_R34_SW BOM_R34_NW BOM_R50_NE BOM_R50_SE BOM_R50_SW BOM_R50_NW BOM_R64_NE BOM_R64_SE BOM_R64_SW BOM_R64_NW BOM_ROCI BOM_POCI BOM_EYE BOM_POS_METHOD BOM_PRES_METHOD NADI_LAT NADI_LON NADI_CAT NADI_WIND NADI_PRES WELLINGTON_LAT WELLINGTON_LON WELLINGTON_WIND WELLINGTON_PRES DS824_LAT DS824_LON DS824_STAGE DS824_WIND DS824_PRES TD9636_LAT TD9636_LON TD9636_STAGE TD9636_WIND TD9636_PRES TD9635_LAT TD9635_LON TD9635_WIND TD9635_PRES TD9635_ROCI NEUMANN_LAT NEUMANN_LON NEUMANN_CLASS NEUMANN_WIND NEUMANN_PRES MLC_LAT MLC_LON MLC_CLASS MLC_WIND MLC_PRES USA_GUST BOM_GUST BOM_GUST_PER REUNION_GUST REUNION_GUST_PER USA_SEAHGT USA_SEARAD_NE USA_SEARAD_SE USA_SEARAD_SW USA_SEARAD_NW STORM_SPEED STORM_DIR
1916282N12119 1916 57 WP MM NOT_NAMED 1916-10-07 22:00:00 NR 12.0000 118.600 main 125 125 __________O___ -1 12.0000 118.600 4 11 302
1916282N12119 1916 57 WP MM NOT_NAMED 1916-10-08 00:00:00 NR 12.2028 118.272 main 164 172 __________P___ -1 12.2028 118.272 4 11 302
1916282N12119 1916 57 WP MM NOT_NAMED 1916-10-08 03:00:00 NR 12.5057 117.784 main 227 227 __________P___ -1 12.5057 117.784 4 11 303
1916282N12119 1916 57 WP MM NOT_NAMED 1916-10-08 06:00:00 NR 12.8058 117.307 main 290 290 __________P___ -1 12.8058 117.307 4 11 303
1916282N12119 1916 57 WP MM NOT_NAMED 1916-10-08 09:00:00 NR 13.1022 116.848 main 353 353 __________P___ -1 13.1022 116.848 4 11 304
1916282N12119 1916 57 WP MM NOT_NAMED 1916-10-08 10:00:00 NR 13.2000 116.700 main 369 369 __________O___ -1 13.2000 116.700 4 10 305
1916282N12119 1916 57 WP MM NOT_NAMED 1916-10-08 12:00:00 NR 13.3938 116.412 main 408 408 __________P___ -1 13.3938 116.412 4 10 305
1916282N12119 1916 57 WP MM NOT_NAMED 1916-10-08 15:00:00 NR 13.6785 115.988 main 458 458 __________P___ -1 13.6785 115.988 4 10 304
1916282N12119 1916 57 WP MM NOT_NAMED 1916-10-08 18:00:00 NR 13.9536 115.549 main 498 498 __________P___ -1 13.9536 115.549 4 10 301
1916282N12119 1916 57 WP MM NOT_NAMED 1916-10-08 21:00:00 NR 14.2159 115.072 main 533 539 __________P___ -1 14.2159 115.072 4 11 299
1916282N12119 1916 57 WP MM NOT_NAMED 1916-10-08 22:00:00 NR 14.3000 114.900 main 549 549 __________O___ -1 14.3000 114.900 4 11 296
1916282N12119 1916 57 WP MM NOT_NAMED 1916-10-09 00:00:00 NR 14.4583 114.549 main 564 514 __________P___ -1 14.4583 114.549 4 12 293
1916282N12119 1916 57 WP MM NOT_NAMED 1916-10-09 03:00:00 NR 14.6831 113.979 main 514 445 __________P___ -1 14.6831 113.979 4 12 291
1916282N12119 1916 57 WP MM NOT_NAMED 1916-10-09 06:00:00 NR 14.9017 113.349 main 445 389 __________P___ -1 14.9017 113.349 4 14 289
1916282N12119 1916 57 WP MM NOT_NAMED 1916-10-09 09:00:00 NR 15.1236 112.650 main 389 359 __________P___ -1 15.1236 112.650 4 14 288
1916282N12119 1916 57 WP MM NOT_NAMED 1916-10-09 10:00:00 NR 15.2000 112.400 main 359 300 __________O___ -1 15.2000 112.400 4 17 288
1916282N12119 1916 57 WP MM NOT_NAMED 1916-10-09 12:00:00 NR 15.3781 111.825 main 300 217 __________P___ -1 15.3781 111.825 4 18 287
1916282N12119 1916 57 WP MM NOT_NAMED 1916-10-09 15:00:00 NR 15.6513 110.897 main 221 141 __________P___ -1 15.6513 110.897 4 19 287
1916282N12119 1916 57 WP MM NOT_NAMED 1916-10-09 18:00:00 NR 15.9113 109.972 main 141 82 __________P___ -1 15.9113 109.972 4 18 286
1916282N12119 1916 57 WP MM NOT_NAMED 1916-10-09 21:00:00 NR 16.1363 109.141 main 82 67 __________P___ -1 16.1363 109.141 4 16 286
1916282N12119 1916 57 WP MM NOT_NAMED 1916-10-09 22:00:00 NR 16.2000 108.900 main 67 39 __________O___ -1 16.2000 108.900 2 12 285
1916282N12119 1916 57 WP MM NOT_NAMED 1916-10-10 00:00:00 NR 16.2993 108.524 main 39 22 __________P___ -1 16.2993 108.524 2 10 285
1916282N12119 1916 57 WP MM NOT_NAMED 1916-10-10 03:00:00 NR 16.4118 108.081 main 22 10 __________P___ -1 16.4118 108.081 2 8 285
1916282N12119 1916 57 WP MM NOT_NAMED 1916-10-10 06:00:00 NR 16.4972 107.729 main 10 0 __________P___ -1 16.4972 107.729 2 7 284
1916282N12119 1916 57 WP MM NOT_NAMED 1916-10-10 09:00:00 NR 16.5735 107.410 main 0 0 __________P___ -1 16.5735 107.410 2 6 284
1916282N12119 1916 57 WP MM NOT_NAMED 1916-10-10 10:00:00 NR 16.6000 107.300 main 0 0 __________O___ -1 16.6000 107.300 2 7 284
1916282N12119 1916 57 WP MM NOT_NAMED 1916-10-10 12:00:00 NR 16.6574 107.066 main 0 0 __________P___ -1 16.6574 107.066 2 7 285
1916282N12119 1916 57 WP MM NOT_NAMED 1916-10-10 15:00:00 NR 16.7530 106.683 main 0 0 __________P___ -1 16.7530 106.683 2 8 285
1916282N12119 1916 57 WP MM NOT_NAMED 1916-10-10 18:00:00 NR 16.8564 106.272 main 0 0 __________P___ -1 16.8564 106.272 2 8 285
1916282N12119 1916 57 WP MM NOT_NAMED 1916-10-10 21:00:00 NR 16.9639 105.844 main 0 0 __________P___ -1 16.9639 105.844 2 8 285
1916282N12119 1916 57 WP MM NOT_NAMED 1916-10-10 22:00:00 NR 17.0000 105.700 main 0 __________O___ -1 17.0000 105.700 2 9 285

Digital Typhoon Data and Search

About IBTrACS Database

This database is a web-friendly format of International Best Track Archive for Climate Stewardship (IBTrACS), a global best track data archive curated by NOAA dating back to 1842.

Updated: 2021-10-27